sensor_id;sensor_type;location;lat;lon;timestamp;P1;durP1;ratioP1;P2;durP2;ratioP2
38901;SDS011;24661;53.566;9.910;2023-07-20T00:00:04;2.53;;;1.60;;
38901;SDS011;24661;53.566;9.910;2023-07-20T00:02:30;2.37;;;1.70;;
38901;SDS011;24661;53.566;9.910;2023-07-20T00:04:56;2.97;;;1.50;;
38901;SDS011;24661;53.566;9.910;2023-07-20T00:07:21;1.80;;;1.70;;
38901;SDS011;24661;53.566;9.910;2023-07-20T00:09:47;1.47;;;1.37;;
38901;SDS011;24661;53.566;9.910;2023-07-20T00:12:13;2.00;;;1.80;;
38901;SDS011;24661;53.566;9.910;2023-07-20T00:14:39;2.00;;;1.70;;
38901;SDS011;24661;53.566;9.910;2023-07-20T00:17:04;2.20;;;1.80;;
38901;SDS011;24661;53.566;9.910;2023-07-20T00:19:30;1.30;;;1.20;;
38901;SDS011;24661;53.566;9.910;2023-07-20T00:21:57;3.37;;;1.67;;
38901;SDS011;24661;53.566;9.910;2023-07-20T00:24:23;2.83;;;1.70;;
38901;SDS011;24661;53.566;9.910;2023-07-20T00:26:48;1.57;;;1.40;;
38901;SDS011;24661;53.566;9.910;2023-07-20T00:29:14;1.37;;;1.23;;
38901;SDS011;24661;53.566;9.910;2023-07-20T00:31:39;2.50;;;1.40;;
38901;SDS011;24661;53.566;9.910;2023-07-20T00:34:05;2.47;;;1.63;;
38901;SDS011;24661;53.566;9.910;2023-07-20T00:36:31;3.03;;;1.87;;
38901;SDS011;24661;53.566;9.910;2023-07-20T00:38:57;1.77;;;1.60;;
38901;SDS011;24661;53.566;9.910;2023-07-20T00:41:23;1.73;;;1.63;;
38901;SDS011;24661;53.566;9.910;2023-07-20T00:43:48;5.07;;;1.63;;
38901;SDS011;24661;53.566;9.910;2023-07-20T00:46:15;2.07;;;1.87;;
38901;SDS011;24661;53.566;9.910;2023-07-20T00:48:41;3.03;;;1.87;;
38901;SDS011;24661;53.566;9.910;2023-07-20T00:51:07;3.30;;;1.83;;
38901;SDS011;24661;53.566;9.910;2023-07-20T00:53:33;3.67;;;2.17;;
38901;SDS011;24661;53.566;9.910;2023-07-20T00:55:58;5.43;;;2.43;;
38901;SDS011;24661;53.566;9.910;2023-07-20T00:58:24;2.30;;;1.70;;
38901;SDS011;24661;53.566;9.910;2023-07-20T01:00:50;4.83;;;1.93;;
38901;SDS011;24661;53.566;9.910;2023-07-20T01:03:16;3.43;;;1.97;;
38901;SDS011;24661;53.566;9.910;2023-07-20T01:05:46;5.27;;;2.57;;
38901;SDS011;24661;53.566;9.910;2023-07-20T01:08:21;2.50;;;2.17;;
38901;SDS011;24661;53.566;9.910;2023-07-20T01:10:54;3.47;;;2.30;;
38901;SDS011;24661;53.566;9.910;2023-07-20T01:13:27;3.60;;;2.60;;
38901;SDS011;24661;53.566;9.910;2023-07-20T01:15:57;3.03;;;2.73;;
38901;SDS011;24661;53.566;9.910;2023-07-20T01:18:26;3.33;;;2.60;;
38901;SDS011;24661;53.566;9.910;2023-07-20T01:20:52;5.37;;;2.80;;
38901;SDS011;24661;53.566;9.910;2023-07-20T01:26:33;3.73;;;3.33;;
38901;SDS011;24661;53.566;9.910;2023-07-20T01:31:54;3.87;;;3.53;;
38901;SDS011;24661;53.566;9.910;2023-07-20T01:34:22;4.37;;;3.97;;
38901;SDS011;24661;53.566;9.910;2023-07-20T01:36:49;3.33;;;3.00;;
38901;SDS011;24661;53.566;9.910;2023-07-20T01:39:17;7.03;;;3.90;;
38901;SDS011;24661;53.566;9.910;2023-07-20T01:41:44;3.73;;;3.37;;
38901;SDS011;24661;53.566;9.910;2023-07-20T01:44:11;3.93;;;3.30;;
38901;SDS011;24661;53.566;9.910;2023-07-20T01:46:37;4.20;;;2.63;;
38901;SDS011;24661;53.566;9.910;2023-07-20T01:49:03;2.90;;;2.60;;
38901;SDS011;24661;53.566;9.910;2023-07-20T01:51:29;4.87;;;3.23;;
38901;SDS011;24661;53.566;9.910;2023-07-20T01:53:54;4.37;;;3.30;;
38901;SDS011;24661;53.566;9.910;2023-07-20T01:56:20;3.90;;;3.30;;
38901;SDS011;24661;53.566;9.910;2023-07-20T01:58:46;9.87;;;4.40;;
38901;SDS011;24661;53.566;9.910;2023-07-20T02:01:11;4.77;;;3.33;;
38901;SDS011;24661;53.566;9.910;2023-07-20T02:03:37;4.90;;;3.30;;
38901;SDS011;24661;53.566;9.910;2023-07-20T02:06:02;5.57;;;4.20;;
38901;SDS011;24661;53.566;9.910;2023-07-20T02:08:28;2.87;;;2.63;;
38901;SDS011;24661;53.566;9.910;2023-07-20T02:10:53;2.97;;;2.50;;
38901;SDS011;24661;53.566;9.910;2023-07-20T02:13:19;3.00;;;2.57;;
38901;SDS011;24661;53.566;9.910;2023-07-20T02:15:44;3.60;;;2.87;;
38901;SDS011;24661;53.566;9.910;2023-07-20T02:18:12;5.73;;;2.30;;
38901;SDS011;24661;53.566;9.910;2023-07-20T02:20:37;3.47;;;2.60;;
38901;SDS011;24661;53.566;9.910;2023-07-20T02:23:03;7.27;;;3.10;;
38901;SDS011;24661;53.566;9.910;2023-07-20T02:25:28;4.13;;;3.20;;
38901;SDS011;24661;53.566;9.910;2023-07-20T02:27:56;3.50;;;2.63;;
38901;SDS011;24661;53.566;9.910;2023-07-20T02:30:21;3.47;;;2.70;;
38901;SDS011;24661;53.566;9.910;2023-07-20T02:32:47;4.00;;;3.23;;
38901;SDS011;24661;53.566;9.910;2023-07-20T02:35:13;3.80;;;2.90;;
38901;SDS011;24661;53.566;9.910;2023-07-20T02:37:42;5.07;;;3.00;;
38901;SDS011;24661;53.566;9.910;2023-07-20T02:40:07;3.17;;;2.60;;
38901;SDS011;24661;53.566;9.910;2023-07-20T02:42:34;2.97;;;2.50;;
38901;SDS011;24661;53.566;9.910;2023-07-20T02:45:01;6.50;;;2.80;;
38901;SDS011;24661;53.566;9.910;2023-07-20T02:47:28;3.10;;;2.80;;
38901;SDS011;24661;53.566;9.910;2023-07-20T02:49:54;3.70;;;2.70;;
38901;SDS011;24661;53.566;9.910;2023-07-20T02:52:19;3.53;;;3.13;;
38901;SDS011;24661;53.566;9.910;2023-07-20T02:54:45;5.33;;;3.30;;
38901;SDS011;24661;53.566;9.910;2023-07-20T02:57:10;4.80;;;3.00;;
38901;SDS011;24661;53.566;9.910;2023-07-20T02:59:36;3.60;;;3.30;;
38901;SDS011;24661;53.566;9.910;2023-07-20T03:02:01;5.47;;;2.90;;
38901;SDS011;24661;53.566;9.910;2023-07-20T03:04:28;4.10;;;3.40;;
38901;SDS011;24661;53.566;9.910;2023-07-20T03:06:53;3.00;;;2.57;;
38901;SDS011;24661;53.566;9.910;2023-07-20T03:09:19;3.87;;;3.30;;
38901;SDS011;24661;53.566;9.910;2023-07-20T03:11:44;3.00;;;2.70;;
38901;SDS011;24661;53.566;9.910;2023-07-20T03:14:10;3.20;;;2.50;;
38901;SDS011;24661;53.566;9.910;2023-07-20T03:16:36;4.37;;;2.27;;
38901;SDS011;24661;53.566;9.910;2023-07-20T03:19:02;3.23;;;2.93;;
38901;SDS011;24661;53.566;9.910;2023-07-20T03:21:28;4.30;;;3.03;;
38901;SDS011;24661;53.566;9.910;2023-07-20T03:23:54;2.40;;;2.20;;
38901;SDS011;24661;53.566;9.910;2023-07-20T03:26:20;2.77;;;2.43;;
38901;SDS011;24661;53.566;9.910;2023-07-20T03:28:45;5.07;;;2.47;;
38901;SDS011;24661;53.566;9.910;2023-07-20T03:31:11;3.07;;;2.67;;
38901;SDS011;24661;53.566;9.910;2023-07-20T03:33:37;3.63;;;2.50;;
38901;SDS011;24661;53.566;9.910;2023-07-20T03:36:02;2.70;;;2.20;;
38901;SDS011;24661;53.566;9.910;2023-07-20T03:38:28;2.40;;;2.20;;
38901;SDS011;24661;53.566;9.910;2023-07-20T03:40:55;7.87;;;2.63;;
38901;SDS011;24661;53.566;9.910;2023-07-20T03:43:22;2.83;;;2.63;;
38901;SDS011;24661;53.566;9.910;2023-07-20T03:45:48;2.93;;;2.63;;
38901;SDS011;24661;53.566;9.910;2023-07-20T03:48:17;4.83;;;2.70;;
38901;SDS011;24661;53.566;9.910;2023-07-20T03:50:45;3.57;;;3.07;;
38901;SDS011;24661;53.566;9.910;2023-07-20T03:53:14;3.33;;;2.43;;
38901;SDS011;24661;53.566;9.910;2023-07-20T03:55:40;3.80;;;3.00;;
38901;SDS011;24661;53.566;9.910;2023-07-20T03:58:07;3.13;;;2.80;;
38901;SDS011;24661;53.566;9.910;2023-07-20T04:00:33;4.77;;;3.37;;
38901;SDS011;24661;53.566;9.910;2023-07-20T04:02:59;6.70;;;3.50;;
38901;SDS011;24661;53.566;9.910;2023-07-20T04:05:25;5.77;;;3.87;;
38901;SDS011;24661;53.566;9.910;2023-07-20T04:07:51;3.77;;;3.40;;
38901;SDS011;24661;53.566;9.910;2023-07-20T04:16:41;3.73;;;3.43;;
38901;SDS011;24661;53.566;9.910;2023-07-20T04:19:07;4.87;;;3.20;;
38901;SDS011;24661;53.566;9.910;2023-07-20T04:21:39;4.73;;;3.30;;
38901;SDS011;24661;53.566;9.910;2023-07-20T04:24:06;3.87;;;3.10;;
38901;SDS011;24661;53.566;9.910;2023-07-20T04:26:31;3.53;;;2.83;;
38901;SDS011;24661;53.566;9.910;2023-07-20T04:28:57;3.93;;;2.83;;
38901;SDS011;24661;53.566;9.910;2023-07-20T04:31:24;4.40;;;3.10;;
38901;SDS011;24661;53.566;9.910;2023-07-20T04:33:50;4.43;;;2.37;;
38901;SDS011;24661;53.566;9.910;2023-07-20T04:36:16;4.53;;;2.87;;
38901;SDS011;24661;53.566;9.910;2023-07-20T04:38:44;2.57;;;2.37;;
38901;SDS011;24661;53.566;9.910;2023-07-20T04:41:10;2.10;;;1.93;;
38901;SDS011;24661;53.566;9.910;2023-07-20T04:43:40;2.50;;;2.27;;
38901;SDS011;24661;53.566;9.910;2023-07-20T04:46:09;4.70;;;2.50;;
38901;SDS011;24661;53.566;9.910;2023-07-20T04:48:35;4.07;;;2.40;;
38901;SDS011;24661;53.566;9.910;2023-07-20T04:51:01;2.50;;;2.20;;
38901;SDS011;24661;53.566;9.910;2023-07-20T04:53:27;2.50;;;2.30;;
38901;SDS011;24661;53.566;9.910;2023-07-20T04:55:52;4.30;;;3.10;;
38901;SDS011;24661;53.566;9.910;2023-07-20T04:58:19;5.77;;;3.03;;
38901;SDS011;24661;53.566;9.910;2023-07-20T05:00:46;3.73;;;2.93;;
38901;SDS011;24661;53.566;9.910;2023-07-20T05:03:12;5.03;;;3.20;;
38901;SDS011;24661;53.566;9.910;2023-07-20T05:05:38;3.07;;;2.80;;
38901;SDS011;24661;53.566;9.910;2023-07-20T05:08:04;4.40;;;3.23;;
38901;SDS011;24661;53.566;9.910;2023-07-20T05:10:29;5.97;;;4.37;;
38901;SDS011;24661;53.566;9.910;2023-07-20T05:12:55;5.30;;;3.90;;
38901;SDS011;24661;53.566;9.910;2023-07-20T05:15:20;4.60;;;4.10;;
38901;SDS011;24661;53.566;9.910;2023-07-20T05:17:46;5.27;;;4.47;;
38901;SDS011;24661;53.566;9.910;2023-07-20T05:20:13;6.77;;;5.20;;
38901;SDS011;24661;53.566;9.910;2023-07-20T05:22:39;9.03;;;6.43;;
38901;SDS011;24661;53.566;9.910;2023-07-20T05:25:07;6.30;;;5.33;;
38901;SDS011;24661;53.566;9.910;2023-07-20T05:27:34;6.23;;;5.63;;
38901;SDS011;24661;53.566;9.910;2023-07-20T05:30:01;6.83;;;5.43;;
38901;SDS011;24661;53.566;9.910;2023-07-20T05:32:27;5.23;;;4.73;;
38901;SDS011;24661;53.566;9.910;2023-07-20T05:34:53;8.73;;;6.90;;
38901;SDS011;24661;53.566;9.910;2023-07-20T05:37:19;6.93;;;6.23;;
38901;SDS011;24661;53.566;9.910;2023-07-20T05:39:45;6.77;;;6.00;;
38901;SDS011;24661;53.566;9.910;2023-07-20T05:42:10;8.10;;;5.67;;
38901;SDS011;24661;53.566;9.910;2023-07-20T05:44:36;8.40;;;5.80;;
38901;SDS011;24661;53.566;9.910;2023-07-20T05:47:01;7.83;;;5.83;;
38901;SDS011;24661;53.566;9.910;2023-07-20T05:49:29;7.97;;;5.50;;
38901;SDS011;24661;53.566;9.910;2023-07-20T05:51:55;6.83;;;5.37;;
38901;SDS011;24661;53.566;9.910;2023-07-20T05:54:22;5.67;;;4.80;;
38901;SDS011;24661;53.566;9.910;2023-07-20T05:56:48;9.83;;;5.20;;
38901;SDS011;24661;53.566;9.910;2023-07-20T05:59:14;5.67;;;4.50;;
38901;SDS011;24661;53.566;9.910;2023-07-20T06:01:40;8.93;;;4.43;;
38901;SDS011;24661;53.566;9.910;2023-07-20T06:04:06;4.10;;;3.60;;
38901;SDS011;24661;53.566;9.910;2023-07-20T06:06:32;4.23;;;3.43;;
38901;SDS011;24661;53.566;9.910;2023-07-20T06:08:59;4.17;;;3.37;;
38901;SDS011;24661;53.566;9.910;2023-07-20T06:11:29;4.47;;;2.20;;
38901;SDS011;24661;53.566;9.910;2023-07-20T06:13:55;8.50;;;2.87;;
38901;SDS011;24661;53.566;9.910;2023-07-20T06:16:21;6.93;;;2.40;;
38901;SDS011;24661;53.566;9.910;2023-07-20T06:18:47;4.33;;;2.63;;
38901;SDS011;24661;53.566;9.910;2023-07-20T06:21:12;7.40;;;3.13;;
38901;SDS011;24661;53.566;9.910;2023-07-20T06:23:38;5.73;;;2.23;;
38901;SDS011;24661;53.566;9.910;2023-07-20T06:26:06;2.30;;;1.77;;
38901;SDS011;24661;53.566;9.910;2023-07-20T06:28:32;3.73;;;2.00;;
38901;SDS011;24661;53.566;9.910;2023-07-20T06:30:59;1.87;;;1.30;;
38901;SDS011;24661;53.566;9.910;2023-07-20T06:33:25;3.23;;;1.30;;
38901;SDS011;24661;53.566;9.910;2023-07-20T06:35:51;1.70;;;1.60;;
38901;SDS011;24661;53.566;9.910;2023-07-20T06:38:17;2.67;;;1.60;;
38901;SDS011;24661;53.566;9.910;2023-07-20T06:40:43;6.10;;;2.43;;
38901;SDS011;24661;53.566;9.910;2023-07-20T06:43:11;5.17;;;1.50;;
38901;SDS011;24661;53.566;9.910;2023-07-20T06:45:36;3.90;;;1.90;;
38901;SDS011;24661;53.566;9.910;2023-07-20T06:48:02;5.17;;;1.37;;
38901;SDS011;24661;53.566;9.910;2023-07-20T06:50:28;3.33;;;2.00;;
38901;SDS011;24661;53.566;9.910;2023-07-20T06:52:54;6.47;;;1.40;;
38901;SDS011;24661;53.566;9.910;2023-07-20T06:55:19;7.67;;;1.50;;
38901;SDS011;24661;53.566;9.910;2023-07-20T06:57:45;5.30;;;1.70;;
38901;SDS011;24661;53.566;9.910;2023-07-20T07:00:10;4.50;;;1.50;;
38901;SDS011;24661;53.566;9.910;2023-07-20T07:02:36;3.93;;;2.13;;
38901;SDS011;24661;53.566;9.910;2023-07-20T07:05:02;3.83;;;1.13;;
38901;SDS011;24661;53.566;9.910;2023-07-20T07:07:28;5.60;;;1.50;;
38901;SDS011;24661;53.566;9.910;2023-07-20T07:09:54;4.23;;;1.70;;
38901;SDS011;24661;53.566;9.910;2023-07-20T07:12:19;2.43;;;1.20;;
38901;SDS011;24661;53.566;9.910;2023-07-20T07:14:45;2.43;;;1.30;;
38901;SDS011;24661;53.566;9.910;2023-07-20T07:17:10;3.40;;;1.20;;
38901;SDS011;24661;53.566;9.910;2023-07-20T07:19:37;4.67;;;2.23;;
38901;SDS011;24661;53.566;9.910;2023-07-20T07:22:03;2.73;;;1.37;;
38901;SDS011;24661;53.566;9.910;2023-07-20T07:24:29;4.30;;;1.40;;
38901;SDS011;24661;53.566;9.910;2023-07-20T07:26:58;3.57;;;1.33;;
38901;SDS011;24661;53.566;9.910;2023-07-20T07:29:25;2.07;;;1.40;;
38901;SDS011;24661;53.566;9.910;2023-07-20T07:31:50;5.10;;;1.70;;
38901;SDS011;24661;53.566;9.910;2023-07-20T07:34:16;3.10;;;1.40;;
38901;SDS011;24661;53.566;9.910;2023-07-20T07:36:42;4.70;;;1.60;;
38901;SDS011;24661;53.566;9.910;2023-07-20T07:39:08;5.43;;;1.50;;
38901;SDS011;24661;53.566;9.910;2023-07-20T07:41:34;7.83;;;3.60;;
38901;SDS011;24661;53.566;9.910;2023-07-20T07:44:00;7.73;;;2.07;;
38901;SDS011;24661;53.566;9.910;2023-07-20T07:46:25;4.13;;;1.53;;
38901;SDS011;24661;53.566;9.910;2023-07-20T07:48:51;3.20;;;1.50;;
38901;SDS011;24661;53.566;9.910;2023-07-20T07:51:16;4.43;;;1.60;;
38901;SDS011;24661;53.566;9.910;2023-07-20T07:53:42;4.57;;;1.70;;
38901;SDS011;24661;53.566;9.910;2023-07-20T07:56:08;4.10;;;2.20;;
38901;SDS011;24661;53.566;9.910;2023-07-20T07:58:34;5.73;;;1.80;;
38901;SDS011;24661;53.566;9.910;2023-07-20T08:01:00;7.77;;;2.17;;
38901;SDS011;24661;53.566;9.910;2023-07-20T08:03:26;7.67;;;1.90;;
38901;SDS011;24661;53.566;9.910;2023-07-20T08:05:54;6.43;;;2.60;;
38901;SDS011;24661;53.566;9.910;2023-07-20T08:08:23;7.17;;;2.27;;
38901;SDS011;24661;53.566;9.910;2023-07-20T08:10:49;5.93;;;2.17;;
38901;SDS011;24661;53.566;9.910;2023-07-20T08:13:18;3.03;;;1.67;;
38901;SDS011;24661;53.566;9.910;2023-07-20T08:15:45;8.40;;;2.20;;
38901;SDS011;24661;53.566;9.910;2023-07-20T08:18:13;5.57;;;2.13;;
38901;SDS011;24661;53.566;9.910;2023-07-20T08:20:39;7.23;;;2.20;;
38901;SDS011;24661;53.566;9.910;2023-07-20T08:23:08;4.87;;;2.67;;
38901;SDS011;24661;53.566;9.910;2023-07-20T08:25:36;4.57;;;2.50;;
38901;SDS011;24661;53.566;9.910;2023-07-20T08:28:04;5.60;;;2.00;;
38901;SDS011;24661;53.566;9.910;2023-07-20T08:30:39;6.03;;;2.67;;
38901;SDS011;24661;53.566;9.910;2023-07-20T08:33:09;11.90;;;2.40;;
38901;SDS011;24661;53.566;9.910;2023-07-20T08:35:35;4.10;;;2.37;;
38901;SDS011;24661;53.566;9.910;2023-07-20T08:38:01;5.70;;;2.10;;
38901;SDS011;24661;53.566;9.910;2023-07-20T08:40:27;4.40;;;2.10;;
38901;SDS011;24661;53.566;9.910;2023-07-20T08:42:53;4.30;;;1.80;;
38901;SDS011;24661;53.566;9.910;2023-07-20T08:45:20;7.50;;;2.00;;
38901;SDS011;24661;53.566;9.910;2023-07-20T08:47:48;5.17;;;2.70;;
38901;SDS011;24661;53.566;9.910;2023-07-20T08:50:15;10.50;;;4.70;;
38901;SDS011;24661;53.566;9.910;2023-07-20T08:52:41;5.77;;;2.77;;
38901;SDS011;24661;53.566;9.910;2023-07-20T08:55:07;11.00;;;6.57;;
38901;SDS011;24661;53.566;9.910;2023-07-20T08:57:33;3.13;;;2.40;;
38901;SDS011;24661;53.566;9.910;2023-07-20T09:00:02;9.40;;;5.73;;
38901;SDS011;24661;53.566;9.910;2023-07-20T09:02:48;10.87;;;3.33;;
38901;SDS011;24661;53.566;9.910;2023-07-20T09:05:16;5.27;;;1.90;;
38901;SDS011;24661;53.566;9.910;2023-07-20T09:07:42;6.13;;;2.23;;
38901;SDS011;24661;53.566;9.910;2023-07-20T09:10:08;6.33;;;2.33;;
38901;SDS011;24661;53.566;9.910;2023-07-20T09:12:35;6.40;;;1.80;;
38901;SDS011;24661;53.566;9.910;2023-07-20T09:15:02;5.50;;;1.70;;
38901;SDS011;24661;53.566;9.910;2023-07-20T09:17:28;5.93;;;2.30;;
38901;SDS011;24661;53.566;9.910;2023-07-20T09:19:54;5.10;;;1.67;;
38901;SDS011;24661;53.566;9.910;2023-07-20T09:22:19;4.47;;;1.73;;
38901;SDS011;24661;53.566;9.910;2023-07-20T09:24:45;6.03;;;2.03;;
38901;SDS011;24661;53.566;9.910;2023-07-20T09:27:11;5.53;;;1.50;;
38901;SDS011;24661;53.566;9.910;2023-07-20T09:29:47;2.50;;;1.20;;
38901;SDS011;24661;53.566;9.910;2023-07-20T09:32:20;3.87;;;1.20;;
38901;SDS011;24661;53.566;9.910;2023-07-20T09:34:46;3.20;;;1.37;;
38901;SDS011;24661;53.566;9.910;2023-07-20T09:37:12;2.43;;;0.90;;
38901;SDS011;24661;53.566;9.910;2023-07-20T09:39:45;2.77;;;1.10;;
38901;SDS011;24661;53.566;9.910;2023-07-20T09:42:11;2.97;;;1.37;;
38901;SDS011;24661;53.566;9.910;2023-07-20T09:44:40;3.37;;;1.63;;
38901;SDS011;24661;53.566;9.910;2023-07-20T09:47:09;6.57;;;3.03;;
38901;SDS011;24661;53.566;9.910;2023-07-20T09:49:40;4.47;;;1.90;;
38901;SDS011;24661;53.566;9.910;2023-07-20T09:52:09;3.93;;;1.10;;
38901;SDS011;24661;53.566;9.910;2023-07-20T09:54:39;9.27;;;3.07;;
38901;SDS011;24661;53.566;9.910;2023-07-20T09:57:08;5.23;;;1.80;;
38901;SDS011;24661;53.566;9.910;2023-07-20T09:59:37;2.77;;;1.00;;
38901;SDS011;24661;53.566;9.910;2023-07-20T10:02:03;3.27;;;1.43;;
38901;SDS011;24661;53.566;9.910;2023-07-20T10:04:35;5.57;;;1.57;;
38901;SDS011;24661;53.566;9.910;2023-07-20T10:07:02;3.33;;;1.53;;
38901;SDS011;24661;53.566;9.910;2023-07-20T10:09:35;4.07;;;1.20;;
38901;SDS011;24661;53.566;9.910;2023-07-20T10:12:03;3.20;;;1.00;;
38901;SDS011;24661;53.566;9.910;2023-07-20T10:14:29;3.03;;;1.13;;
38901;SDS011;24661;53.566;9.910;2023-07-20T10:16:58;3.50;;;1.20;;
38901;SDS011;24661;53.566;9.910;2023-07-20T10:22:03;2.80;;;1.20;;
38901;SDS011;24661;53.566;9.910;2023-07-20T10:24:35;5.80;;;1.33;;
38901;SDS011;24661;53.566;9.910;2023-07-20T10:27:02;6.90;;;1.20;;
38901;SDS011;24661;53.566;9.910;2023-07-20T10:29:29;1.90;;;0.80;;
38901;SDS011;24661;53.566;9.910;2023-07-20T10:31:55;4.17;;;1.50;;
38901;SDS011;24661;53.566;9.910;2023-07-20T10:34:22;4.13;;;0.97;;
38901;SDS011;24661;53.566;9.910;2023-07-20T10:36:47;5.87;;;1.00;;
38901;SDS011;24661;53.566;9.910;2023-07-20T10:42:12;3.97;;;0.90;;
38901;SDS011;24661;53.566;9.910;2023-07-20T10:44:37;1.87;;;1.03;;
38901;SDS011;24661;53.566;9.910;2023-07-20T10:47:10;1.40;;;0.73;;
38901;SDS011;24661;53.566;9.910;2023-07-20T10:49:57;1.90;;;0.97;;
38901;SDS011;24661;53.566;9.910;2023-07-20T10:52:23;2.87;;;1.03;;
38901;SDS011;24661;53.566;9.910;2023-07-20T10:54:48;5.00;;;1.60;;
38901;SDS011;24661;53.566;9.910;2023-07-20T10:57:21;5.93;;;1.10;;
38901;SDS011;24661;53.566;9.910;2023-07-20T11:00:06;4.97;;;2.10;;
38901;SDS011;24661;53.566;9.910;2023-07-20T11:02:43;4.70;;;1.23;;
38901;SDS011;24661;53.566;9.910;2023-07-20T11:08:05;3.83;;;1.00;;
38901;SDS011;24661;53.566;9.910;2023-07-20T11:10:37;4.07;;;1.10;;
38901;SDS011;24661;53.566;9.910;2023-07-20T11:13:16;2.83;;;0.97;;
38901;SDS011;24661;53.566;9.910;2023-07-20T11:18:27;1.53;;;0.90;;
38901;SDS011;24661;53.566;9.910;2023-07-20T11:20:53;1.90;;;0.50;;
38901;SDS011;24661;53.566;9.910;2023-07-20T11:23:19;2.10;;;0.33;;
38901;SDS011;24661;53.566;9.910;2023-07-20T11:25:45;1.80;;;0.50;;
38901;SDS011;24661;53.566;9.910;2023-07-20T11:28:11;2.07;;;0.57;;
38901;SDS011;24661;53.566;9.910;2023-07-20T11:30:38;1.00;;;0.60;;
38901;SDS011;24661;53.566;9.910;2023-07-20T11:33:04;1.73;;;0.60;;
38901;SDS011;24661;53.566;9.910;2023-07-20T11:35:30;7.27;;;4.07;;
38901;SDS011;24661;53.566;9.910;2023-07-20T11:38:00;3.03;;;2.10;;
38901;SDS011;24661;53.566;9.910;2023-07-20T11:40:25;1.77;;;0.70;;
38901;SDS011;24661;53.566;9.910;2023-07-20T11:42:51;3.03;;;1.57;;
38901;SDS011;24661;53.566;9.910;2023-07-20T11:45:19;6.10;;;3.47;;
38901;SDS011;24661;53.566;9.910;2023-07-20T11:47:44;7.37;;;4.17;;
38901;SDS011;24661;53.566;9.910;2023-07-20T11:50:10;1.53;;;1.00;;
38901;SDS011;24661;53.566;9.910;2023-07-20T11:52:38;1.93;;;0.50;;
38901;SDS011;24661;53.566;9.910;2023-07-20T11:55:05;3.77;;;1.03;;
38901;SDS011;24661;53.566;9.910;2023-07-20T11:57:32;3.83;;;1.00;;
38901;SDS011;24661;53.566;9.910;2023-07-20T12:00:00;3.87;;;0.97;;
38901;SDS011;24661;53.566;9.910;2023-07-20T12:02:30;3.17;;;1.10;;
38901;SDS011;24661;53.566;9.910;2023-07-20T12:04:57;3.50;;;1.00;;
38901;SDS011;24661;53.566;9.910;2023-07-20T12:07:23;3.13;;;1.00;;
38901;SDS011;24661;53.566;9.910;2023-07-20T12:10:10;1.83;;;0.80;;
38901;SDS011;24661;53.566;9.910;2023-07-20T12:12:40;2.87;;;0.87;;
38901;SDS011;24661;53.566;9.910;2023-07-20T12:17:45;6.97;;;0.87;;
38901;SDS011;24661;53.566;9.910;2023-07-20T12:20:24;4.47;;;0.80;;
38901;SDS011;24661;53.566;9.910;2023-07-20T12:23:08;4.20;;;0.90;;
38901;SDS011;24661;53.566;9.910;2023-07-20T12:25:41;3.27;;;0.97;;
38901;SDS011;24661;53.566;9.910;2023-07-20T12:28:12;1.70;;;0.80;;
38901;SDS011;24661;53.566;9.910;2023-07-20T12:30:42;3.90;;;1.10;;
38901;SDS011;24661;53.566;9.910;2023-07-20T12:33:10;1.90;;;0.87;;
38901;SDS011;24661;53.566;9.910;2023-07-20T12:35:42;3.17;;;0.97;;
38901;SDS011;24661;53.566;9.910;2023-07-20T12:38:11;2.97;;;0.83;;
38901;SDS011;24661;53.566;9.910;2023-07-20T12:40:36;5.27;;;1.30;;
38901;SDS011;24661;53.566;9.910;2023-07-20T12:43:02;4.47;;;1.43;;
38901;SDS011;24661;53.566;9.910;2023-07-20T12:45:28;2.80;;;0.97;;
38901;SDS011;24661;53.566;9.910;2023-07-20T12:47:55;3.80;;;1.07;;
38901;SDS011;24661;53.566;9.910;2023-07-20T12:50:20;4.87;;;2.30;;
38901;SDS011;24661;53.566;9.910;2023-07-20T12:52:46;2.93;;;1.07;;
38901;SDS011;24661;53.566;9.910;2023-07-20T12:55:11;4.47;;;1.30;;
38901;SDS011;24661;53.566;9.910;2023-07-20T12:57:37;2.90;;;1.50;;
38901;SDS011;24661;53.566;9.910;2023-07-20T13:00:03;3.87;;;0.87;;
38901;SDS011;24661;53.566;9.910;2023-07-20T13:02:32;3.17;;;0.90;;
38901;SDS011;24661;53.566;9.910;2023-07-20T13:04:58;2.63;;;0.80;;
38901;SDS011;24661;53.566;9.910;2023-07-20T13:07:30;1.63;;;0.70;;
38901;SDS011;24661;53.566;9.910;2023-07-20T13:09:58;0.80;;;0.63;;
38901;SDS011;24661;53.566;9.910;2023-07-20T13:12:25;1.57;;;0.50;;
38901;SDS011;24661;53.566;9.910;2023-07-20T13:14:52;2.23;;;0.90;;
38901;SDS011;24661;53.566;9.910;2023-07-20T13:17:17;5.40;;;0.90;;
38901;SDS011;24661;53.566;9.910;2023-07-20T13:19:43;4.10;;;0.90;;
38901;SDS011;24661;53.566;9.910;2023-07-20T13:22:09;4.00;;;1.20;;
38901;SDS011;24661;53.566;9.910;2023-07-20T13:24:34;3.83;;;1.07;;
38901;SDS011;24661;53.566;9.910;2023-07-20T13:27:00;3.57;;;0.83;;
38901;SDS011;24661;53.566;9.910;2023-07-20T13:29:25;2.87;;;0.90;;
38901;SDS011;24661;53.566;9.910;2023-07-20T13:31:51;1.63;;;0.73;;
38901;SDS011;24661;53.566;9.910;2023-07-20T13:34:16;2.90;;;0.70;;
38901;SDS011;24661;53.566;9.910;2023-07-20T13:36:42;3.67;;;0.87;;
38901;SDS011;24661;53.566;9.910;2023-07-20T13:39:07;2.57;;;0.80;;
38901;SDS011;24661;53.566;9.910;2023-07-20T13:41:34;4.33;;;0.60;;
38901;SDS011;24661;53.566;9.910;2023-07-20T13:43:59;2.57;;;1.00;;
38901;SDS011;24661;53.566;9.910;2023-07-20T13:46:25;3.10;;;0.93;;
38901;SDS011;24661;53.566;9.910;2023-07-20T13:48:50;3.43;;;1.10;;
38901;SDS011;24661;53.566;9.910;2023-07-20T13:51:16;3.37;;;1.30;;
38901;SDS011;24661;53.566;9.910;2023-07-20T13:53:44;5.17;;;1.87;;
38901;SDS011;24661;53.566;9.910;2023-07-20T13:56:11;3.40;;;1.00;;
38901;SDS011;24661;53.566;9.910;2023-07-20T13:58:36;2.40;;;0.67;;
38901;SDS011;24661;53.566;9.910;2023-07-20T14:01:02;2.27;;;0.40;;
38901;SDS011;24661;53.566;9.910;2023-07-20T14:03:27;0.40;;;0.40;;
38901;SDS011;24661;53.566;9.910;2023-07-20T14:05:53;1.67;;;0.70;;
38901;SDS011;24661;53.566;9.910;2023-07-20T14:08:18;4.23;;;0.80;;
38901;SDS011;24661;53.566;9.910;2023-07-20T14:10:44;4.00;;;1.00;;
38901;SDS011;24661;53.566;9.910;2023-07-20T14:13:10;3.60;;;1.00;;
38901;SDS011;24661;53.566;9.910;2023-07-20T14:15:35;2.60;;;0.90;;
38901;SDS011;24661;53.566;9.910;2023-07-20T14:18:01;1.50;;;0.70;;
38901;SDS011;24661;53.566;9.910;2023-07-20T14:20:26;6.80;;;1.20;;
38901;SDS011;24661;53.566;9.910;2023-07-20T14:22:52;3.27;;;0.83;;
38901;SDS011;24661;53.566;9.910;2023-07-20T14:25:17;1.27;;;0.53;;
38901;SDS011;24661;53.566;9.910;2023-07-20T14:27:43;2.60;;;1.10;;
38901;SDS011;24661;53.566;9.910;2023-07-20T14:30:09;3.03;;;1.00;;
38901;SDS011;24661;53.566;9.910;2023-07-20T14:32:35;2.43;;;0.80;;
38901;SDS011;24661;53.566;9.910;2023-07-20T14:35:00;1.17;;;1.07;;
38901;SDS011;24661;53.566;9.910;2023-07-20T14:37:26;5.97;;;1.13;;
38901;SDS011;24661;53.566;9.910;2023-07-20T14:39:51;4.90;;;1.00;;
38901;SDS011;24661;53.566;9.910;2023-07-20T14:42:17;2.10;;;0.93;;
38901;SDS011;24661;53.566;9.910;2023-07-20T14:44:43;3.77;;;0.83;;
38901;SDS011;24661;53.566;9.910;2023-07-20T14:47:09;3.90;;;1.40;;
38901;SDS011;24661;53.566;9.910;2023-07-20T14:49:34;6.43;;;1.17;;
38901;SDS011;24661;53.566;9.910;2023-07-20T14:52:00;3.20;;;1.07;;
38901;SDS011;24661;53.566;9.910;2023-07-20T14:54:27;3.37;;;1.30;;
38901;SDS011;24661;53.566;9.910;2023-07-20T14:56:52;1.93;;;1.03;;
38901;SDS011;24661;53.566;9.910;2023-07-20T14:59:18;7.17;;;1.53;;
38901;SDS011;24661;53.566;9.910;2023-07-20T15:01:44;4.50;;;1.07;;
38901;SDS011;24661;53.566;9.910;2023-07-20T15:04:11;3.23;;;0.97;;
38901;SDS011;24661;53.566;9.910;2023-07-20T15:06:37;4.40;;;2.57;;
38901;SDS011;24661;53.566;9.910;2023-07-20T15:09:03;5.43;;;1.43;;
38901;SDS011;24661;53.566;9.910;2023-07-20T15:11:29;5.83;;;1.27;;